createdAt,value
2023-04-23T00:03:27.392Z,40.22
2023-04-23T00:08:29.707Z,39.45
2023-04-23T00:13:31.725Z,39.10
2023-04-23T00:18:33.321Z,37.78
2023-04-23T00:23:35.042Z,39.10
2023-04-23T00:28:36.726Z,38.45
2023-04-23T00:33:38.642Z,39.00
2023-04-23T00:38:40.301Z,39.25
2023-04-23T00:43:42.624Z,41.15
2023-04-23T00:48:46.270Z,43.08
2023-04-23T00:53:48.055Z,40.60
2023-04-23T00:58:51.689Z,42.47
2023-04-23T01:03:54.082Z,42.78
2023-04-23T01:08:57.024Z,42.05
2023-04-23T01:13:59.439Z,44.97
2023-04-23T01:19:02.246Z,39.67
2023-04-23T01:24:06.155Z,39.50
2023-04-23T01:29:08.125Z,38.65
2023-04-23T01:34:10.562Z,39.05
2023-04-23T01:39:14.928Z,40.08
2023-04-23T01:44:17.826Z,39.72
2023-04-23T01:49:19.453Z,39.92
2023-04-23T01:54:21.261Z,39.80
2023-04-23T01:59:24.920Z,38.30
2023-04-23T02:04:29.752Z,38.15
2023-04-23T02:09:31.443Z,39.00
2023-04-23T02:14:36.304Z,38.15
2023-04-23T02:19:37.900Z,38.53
2023-04-23T02:24:42.739Z,38.70
2023-04-23T02:29:44.529Z,36.67
2023-04-23T02:34:46.623Z,36.10
2023-04-23T02:39:48.231Z,36.22
2023-04-23T02:44:49.842Z,35.72
2023-04-23T02:49:51.511Z,35.17
2023-04-23T02:54:53.316Z,35.45
2023-04-23T02:59:55.194Z,34.08
2023-04-23T03:05:04.321Z,33.60
2023-04-23T03:10:06.835Z,35.60
2023-04-23T03:15:09.457Z,34.38
2023-04-23T03:20:14.608Z,32.33
2023-04-23T03:25:16.506Z,32.05
2023-04-23T03:30:18.963Z,32.45
2023-04-23T03:35:20.811Z,32.92
2023-04-23T03:40:24.326Z,32.92
2023-04-23T03:45:31.017Z,33.53
2023-04-23T03:50:35.801Z,31.77
2023-04-23T03:55:47.163Z,31.75
2023-04-23T04:00:49.959Z,31.90
2023-04-23T04:05:51.587Z,30.17
2023-04-23T04:10:53.368Z,31.17
2023-04-23T04:15:55.162Z,29.90
2023-04-23T04:20:56.938Z,29.00
2023-04-23T04:25:59.926Z,28.17
2023-04-23T04:31:02.152Z,28.63
2023-04-23T04:36:05.199Z,27.92
2023-04-23T04:41:07.731Z,27.67
2023-04-23T04:46:11.844Z,26.73
2023-04-23T04:51:13.503Z,26.52
2023-04-23T04:56:15.195Z,26.67
2023-04-23T05:01:18.271Z,28.38
2023-04-23T05:06:19.928Z,25.83
2023-04-23T05:11:21.525Z,26.80
2023-04-23T05:16:24.074Z,25.80
2023-04-23T05:21:27.610Z,27.33
2023-04-23T05:26:29.524Z,25.48
2023-04-23T05:31:34.100Z,26.20
2023-04-23T05:36:36.564Z,25.05
2023-04-23T05:41:38.416Z,24.75
2023-04-23T05:46:40.138Z,25.25
2023-04-23T05:51:41.787Z,24.25
2023-04-23T05:56:43.523Z,23.58
2023-04-23T06:01:45.270Z,25.05
2023-04-23T06:06:46.892Z,22.90
2023-04-23T06:11:50.591Z,22.77
2023-04-23T06:16:52.770Z,22.42
2023-04-23T06:21:54.548Z,21.48
2023-04-23T06:26:56.342Z,21.60
2023-04-23T06:32:02.803Z,21.55
2023-04-23T06:37:05.008Z,21.45
2023-04-23T06:42:06.768Z,19.95
2023-04-23T06:47:17.998Z,19.77
2023-04-23T06:52:19.592Z,19.77
2023-04-23T06:57:21.950Z,19.90
2023-04-23T07:02:24.729Z,18.25
2023-04-23T07:07:26.424Z,18.75
2023-04-23T07:12:28.003Z,19.20
2023-04-23T07:17:29.632Z,17.63
2023-04-23T07:22:31.330Z,16.08
2023-04-23T07:27:32.925Z,15.85
2023-04-23T07:32:34.706Z,14.88
2023-04-23T07:37:37.200Z,15.27
2023-04-23T07:42:42.913Z,13.27
2023-04-23T07:47:48.086Z,13.02
2023-04-23T07:52:49.807Z,13.07
2023-04-23T07:57:51.403Z,12.23
2023-04-23T08:02:53.915Z,12.32
2023-04-23T08:07:55.924Z,10.05
2023-04-23T08:12:57.549Z,9.05
2023-04-23T08:17:59.148Z,8.63
2023-04-23T08:23:00.986Z,7.93
2023-04-23T08:28:03.860Z,8.40
2023-04-23T08:33:05.604Z,9.25
2023-04-23T08:38:07.219Z,9.23
2023-04-23T08:43:20.694Z,8.82
2023-04-23T08:48:22.623Z,9.07
2023-04-23T08:53:29.312Z,8.45
2023-04-23T08:58:31.591Z,8.10
2023-04-23T09:03:33.714Z,8.60
2023-04-23T09:08:35.749Z,8.60
2023-04-23T09:13:37.497Z,7.55
2023-04-23T09:18:39.707Z,7.28
2023-04-23T09:23:42.514Z,7.30
2023-04-23T09:28:44.169Z,7.28
2023-04-23T09:33:57.024Z,6.80
2023-04-23T09:38:59.226Z,6.70
2023-04-23T09:44:00.893Z,6.50
2023-04-23T09:49:04.237Z,6.70
2023-04-23T09:54:12.812Z,5.65
2023-04-23T09:59:35.588Z,5.47
2023-04-23T10:04:45.321Z,5.07
2023-04-23T10:09:47.820Z,5.97
2023-04-23T10:14:53.805Z,5.13
2023-04-23T10:19:55.919Z,5.28
2023-04-23T10:24:59.841Z,4.15
2023-04-23T10:30:05.484Z,4.72
2023-04-23T10:35:09.344Z,3.97
2023-04-23T10:40:15.309Z,3.10
2023-04-23T10:50:27.671Z,4.35
2023-04-23T10:55:31.242Z,5.05
2023-04-23T11:00:41.813Z,4.00
2023-04-23T11:05:46.528Z,4.07
2023-04-23T11:10:59.497Z,3.88
2023-04-23T11:16:21.588Z,3.63
2023-04-23T11:21:24.381Z,3.95
2023-04-23T11:26:29.921Z,3.83
2023-04-23T11:31:32.928Z,3.88
2023-04-23T11:36:34.828Z,4.20
2023-04-23T11:41:37.032Z,3.92
2023-04-23T11:46:38.827Z,3.38
2023-04-23T11:51:45.059Z,3.45
2023-04-23T11:56:46.817Z,3.38
2023-04-23T12:01:57.113Z,3.10
2023-04-23T12:06:59.516Z,3.08
2023-04-23T12:12:01.530Z,3.10
2023-04-23T12:17:11.338Z,1.98
2023-04-23T12:22:27.747Z,3.15
2023-04-23T12:27:30.850Z,1.98
2023-04-23T12:32:34.268Z,2.05
2023-04-23T12:37:37.781Z,1.55
2023-04-23T12:42:39.400Z,1.52
2023-04-23T12:47:41.249Z,1.55
2023-04-23T12:52:46.384Z,2.80
2023-04-23T12:57:48.082Z,1.90
2023-04-23T13:02:50.035Z,2.97
2023-04-23T13:07:53.620Z,2.08
2023-04-23T13:13:16.442Z,2.63
2023-04-23T13:18:18.054Z,2.38
2023-04-23T13:23:19.730Z,1.85
2023-04-23T13:28:21.359Z,1.95
2023-04-23T13:33:24.425Z,1.65
2023-04-23T13:38:26.619Z,1.80
2023-04-23T13:43:28.278Z,2.47
2023-04-23T13:48:31.358Z,2.00
2023-04-23T13:53:32.975Z,1.85
2023-04-23T13:58:34.614Z,2.30
2023-04-23T14:03:36.278Z,1.52
2023-04-23T14:08:38.424Z,2.42
2023-04-23T14:13:40.039Z,2.67
2023-04-23T14:18:41.691Z,2.10
2023-04-23T14:23:57.690Z,2.17
2023-04-23T14:29:08.789Z,2.40
2023-04-23T14:34:10.484Z,2.38
2023-04-23T14:39:12.561Z,2.65
2023-04-23T14:44:14.785Z,1.65
2023-04-23T14:49:19.198Z,1.95
2023-04-23T14:54:21.713Z,2.08
2023-04-23T14:59:23.760Z,2.75
2023-04-23T15:04:25.576Z,2.30
2023-04-23T15:09:27.333Z,2.28
2023-04-23T15:14:36.926Z,2.78
2023-04-23T15:19:38.561Z,2.53
2023-04-23T15:24:40.404Z,2.45
2023-04-23T15:29:44.278Z,2.30
2023-04-23T15:34:46.008Z,3.13
2023-04-23T15:39:47.628Z,3.38
2023-04-23T15:44:50.538Z,3.55
2023-04-23T15:49:52.216Z,3.65
2023-04-23T15:54:53.847Z,3.65
2023-04-23T15:59:58.284Z,4.43
2023-04-23T16:05:00.385Z,3.45
2023-04-23T16:10:02.472Z,2.90
2023-04-23T16:15:05.713Z,2.60
2023-04-23T16:20:08.411Z,2.50
2023-04-23T16:25:10.093Z,3.83
2023-04-23T16:30:14.335Z,3.40
2023-04-23T16:35:17.030Z,2.65
2023-04-23T16:40:19.356Z,3.03
2023-04-23T16:45:23.155Z,2.17
2023-04-23T16:50:24.865Z,4.88
2023-04-23T16:55:26.563Z,4.40
2023-04-23T17:00:28.249Z,3.22
2023-04-23T17:05:33.420Z,2.00
2023-04-23T17:10:35.247Z,2.50
2023-04-23T17:15:36.871Z,2.22
2023-04-23T17:20:39.922Z,1.90
2023-04-23T17:25:43.904Z,2.10
2023-04-23T17:30:46.131Z,4.07
2023-04-23T17:35:52.269Z,2.75
2023-04-23T17:40:54.446Z,8.38
2023-04-23T17:45:56.169Z,2.10
2023-04-23T17:50:57.802Z,2.15
2023-04-23T17:56:03.350Z,2.55
2023-04-23T18:01:05.290Z,2.72
2023-04-23T18:06:08.700Z,1.80
2023-04-23T18:11:13.768Z,2.53
2023-04-23T18:16:16.047Z,2.22
2023-04-23T18:21:18.472Z,1.70
2023-04-23T18:26:20.051Z,2.20
2023-04-23T18:31:22.251Z,1.92
2023-04-23T18:36:27.322Z,2.30
2023-04-23T18:41:30.105Z,2.05
2023-04-23T18:46:32.064Z,2.20
2023-04-23T18:51:40.020Z,2.30
2023-04-23T18:56:43.993Z,2.80
2023-04-23T19:01:48.075Z,2.55
2023-04-23T19:06:49.719Z,3.17
2023-04-23T19:11:51.356Z,3.08
2023-04-23T19:16:53.916Z,5.35
2023-04-23T19:21:55.545Z,3.78
2023-04-23T19:26:58.157Z,3.75
2023-04-23T19:31:59.855Z,3.70
2023-04-23T19:37:01.459Z,2.72
2023-04-23T19:42:05.693Z,2.67
2023-04-23T19:47:07.367Z,2.15
2023-04-23T19:52:17.378Z,2.00
2023-04-23T19:57:19.762Z,1.92
2023-04-23T20:02:21.645Z,1.98
2023-04-23T20:07:23.270Z,3.10
2023-04-23T20:12:24.952Z,2.03
2023-04-23T20:17:27.175Z,1.40
2023-04-23T20:22:30.848Z,1.63
2023-04-23T20:27:32.985Z,1.90
2023-04-23T20:32:34.784Z,2.17
2023-04-23T20:37:36.624Z,1.75
2023-04-23T20:42:39.747Z,1.70
2023-04-23T20:47:41.597Z,1.75
2023-04-23T20:52:44.635Z,1.65
2023-04-23T20:57:46.446Z,1.83
2023-04-23T21:02:48.246Z,2.03
2023-04-23T21:07:50.744Z,1.90
2023-04-23T21:12:52.590Z,1.35
2023-04-23T21:17:54.263Z,1.45
2023-04-23T21:22:55.934Z,1.67
2023-04-23T21:27:58.615Z,2.10
2023-04-23T21:33:00.524Z,1.20
2023-04-23T21:38:02.165Z,1.30
2023-04-23T21:43:05.066Z,1.40
2023-04-23T21:48:06.743Z,1.27
2023-04-23T21:53:10.979Z,1.20
2023-04-23T21:58:17.831Z,1.33
2023-04-23T22:03:29.404Z,0.98
2023-04-23T22:08:40.534Z,0.90
2023-04-23T22:13:42.694Z,1.80
2023-04-23T22:18:44.783Z,1.20
2023-04-23T22:23:46.487Z,1.10
2023-04-23T22:28:48.169Z,0.90
2023-04-23T22:33:49.801Z,1.00
2023-04-23T22:38:51.448Z,0.70
2023-04-23T22:43:54.253Z,0.73
2023-04-23T22:48:55.864Z,0.70
2023-04-23T22:53:57.484Z,0.60
2023-04-23T22:58:59.118Z,0.70
2023-04-23T23:04:01.121Z,0.70
2023-04-23T23:09:02.755Z,0.50
2023-04-23T23:14:05.683Z,0.80
2023-04-23T23:19:08.374Z,1.08
2023-04-23T23:24:10.348Z,1.60
2023-04-23T23:29:14.004Z,3.25
2023-04-23T23:34:15.759Z,3.05
2023-04-23T23:39:19.999Z,2.97
2023-04-23T23:44:21.662Z,2.42
2023-04-23T23:49:23.248Z,1.95
2023-04-23T23:54:25.072Z,1.17
2023-04-23T23:59:27.497Z,1.10
